sensor_id;sensor_type;location;lat;lon;timestamp;P1;durP1;ratioP1;P2;durP2;ratioP2
8964;SDS011;4517;49.020;12.066;2023-07-13T00:02:22;23.60;;;21.70;;
8964;SDS011;4517;49.020;12.066;2023-07-13T00:04:47;22.93;;;21.10;;
8964;SDS011;4517;49.020;12.066;2023-07-13T00:07:13;22.50;;;20.90;;
8964;SDS011;4517;49.020;12.066;2023-07-13T00:09:39;22.70;;;21.00;;
8964;SDS011;4517;49.020;12.066;2023-07-13T00:12:19;22.60;;;20.90;;
8964;SDS011;4517;49.020;12.066;2023-07-13T00:14:55;22.97;;;21.07;;
8964;SDS011;4517;49.020;12.066;2023-07-13T00:17:22;23.90;;;21.67;;
8964;SDS011;4517;49.020;12.066;2023-07-13T00:19:48;23.63;;;21.73;;
8964;SDS011;4517;49.020;12.066;2023-07-13T00:22:14;23.27;;;21.03;;
8964;SDS011;4517;49.020;12.066;2023-07-13T00:24:39;24.07;;;21.67;;
8964;SDS011;4517;49.020;12.066;2023-07-13T00:27:07;24.03;;;21.83;;
8964;SDS011;4517;49.020;12.066;2023-07-13T00:29:34;23.33;;;21.53;;
8964;SDS011;4517;49.020;12.066;2023-07-13T00:32:00;23.03;;;21.13;;
8964;SDS011;4517;49.020;12.066;2023-07-13T00:34:26;23.97;;;22.17;;
8964;SDS011;4517;49.020;12.066;2023-07-13T00:36:52;23.57;;;21.67;;
8964;SDS011;4517;49.020;12.066;2023-07-13T00:39:17;23.33;;;21.60;;
8964;SDS011;4517;49.020;12.066;2023-07-13T00:41:43;23.30;;;21.40;;
8964;SDS011;4517;49.020;12.066;2023-07-13T00:44:13;22.50;;;20.90;;
8964;SDS011;4517;49.020;12.066;2023-07-13T00:46:39;23.20;;;21.30;;
8964;SDS011;4517;49.020;12.066;2023-07-13T00:49:05;23.83;;;21.77;;
8964;SDS011;4517;49.020;12.066;2023-07-13T00:54:24;23.63;;;21.80;;
8964;SDS011;4517;49.020;12.066;2023-07-13T00:57:03;23.47;;;21.57;;
8964;SDS011;4517;49.020;12.066;2023-07-13T00:59:33;21.83;;;20.03;;
8964;SDS011;4517;49.020;12.066;2023-07-13T01:02:01;22.50;;;20.27;;
8964;SDS011;4517;49.020;12.066;2023-07-13T01:04:28;22.80;;;20.63;;
8964;SDS011;4517;49.020;12.066;2023-07-13T01:06:54;21.13;;;19.17;;
8964;SDS011;4517;49.020;12.066;2023-07-13T01:09:20;21.73;;;19.90;;
8964;SDS011;4517;49.020;12.066;2023-07-13T01:11:45;21.80;;;19.80;;
8964;SDS011;4517;49.020;12.066;2023-07-13T01:14:12;21.87;;;20.10;;
8964;SDS011;4517;49.020;12.066;2023-07-13T01:16:39;22.80;;;21.00;;
8964;SDS011;4517;49.020;12.066;2023-07-13T01:19:30;22.03;;;20.03;;
8964;SDS011;4517;49.020;12.066;2023-07-13T01:22:10;21.43;;;19.60;;
8964;SDS011;4517;49.020;12.066;2023-07-13T01:24:39;21.17;;;19.50;;
8964;SDS011;4517;49.020;12.066;2023-07-13T01:27:08;21.40;;;19.70;;
8964;SDS011;4517;49.020;12.066;2023-07-13T01:29:35;21.63;;;19.90;;
8964;SDS011;4517;49.020;12.066;2023-07-13T01:32:11;20.60;;;19.00;;
8964;SDS011;4517;49.020;12.066;2023-07-13T01:34:41;21.50;;;19.80;;
8964;SDS011;4517;49.020;12.066;2023-07-13T01:37:10;21.33;;;19.63;;
8964;SDS011;4517;49.020;12.066;2023-07-13T01:39:37;21.40;;;19.60;;
8964;SDS011;4517;49.020;12.066;2023-07-13T01:42:03;21.63;;;19.67;;
8964;SDS011;4517;49.020;12.066;2023-07-13T01:44:29;21.50;;;19.87;;
8964;SDS011;4517;49.020;12.066;2023-07-13T01:46:54;21.17;;;19.37;;
8964;SDS011;4517;49.020;12.066;2023-07-13T01:49:20;21.70;;;19.70;;
8964;SDS011;4517;49.020;12.066;2023-07-13T01:51:45;20.30;;;18.67;;
8964;SDS011;4517;49.020;12.066;2023-07-13T01:54:11;21.27;;;19.47;;
8964;SDS011;4517;49.020;12.066;2023-07-13T01:56:37;21.13;;;19.53;;
8964;SDS011;4517;49.020;12.066;2023-07-13T01:59:02;21.33;;;19.53;;
8964;SDS011;4517;49.020;12.066;2023-07-13T02:01:28;21.87;;;20.07;;
8964;SDS011;4517;49.020;12.066;2023-07-13T02:03:53;21.70;;;20.00;;
8964;SDS011;4517;49.020;12.066;2023-07-13T02:06:19;21.17;;;19.30;;
8964;SDS011;4517;49.020;12.066;2023-07-13T02:08:44;20.97;;;19.10;;
8964;SDS011;4517;49.020;12.066;2023-07-13T02:11:11;21.17;;;19.40;;
8964;SDS011;4517;49.020;12.066;2023-07-13T02:13:36;21.13;;;19.43;;
8964;SDS011;4517;49.020;12.066;2023-07-13T02:16:02;21.83;;;19.83;;
8964;SDS011;4517;49.020;12.066;2023-07-13T02:18:28;20.80;;;19.00;;
8964;SDS011;4517;49.020;12.066;2023-07-13T02:20:53;22.37;;;20.30;;
8964;SDS011;4517;49.020;12.066;2023-07-13T02:23:19;21.67;;;19.67;;
8964;SDS011;4517;49.020;12.066;2023-07-13T02:25:45;22.97;;;20.60;;
8964;SDS011;4517;49.020;12.066;2023-07-13T02:28:10;22.47;;;20.13;;
8964;SDS011;4517;49.020;12.066;2023-07-13T02:30:36;22.43;;;20.17;;
8964;SDS011;4517;49.020;12.066;2023-07-13T02:33:03;21.33;;;19.73;;
8964;SDS011;4517;49.020;12.066;2023-07-13T02:35:29;23.07;;;20.63;;
8964;SDS011;4517;49.020;12.066;2023-07-13T02:37:55;21.67;;;19.80;;
8964;SDS011;4517;49.020;12.066;2023-07-13T02:40:20;22.80;;;20.80;;
8964;SDS011;4517;49.020;12.066;2023-07-13T02:42:46;22.70;;;20.80;;
8964;SDS011;4517;49.020;12.066;2023-07-13T02:45:11;21.33;;;19.50;;
8964;SDS011;4517;49.020;12.066;2023-07-13T02:47:39;22.43;;;20.43;;
8964;SDS011;4517;49.020;12.066;2023-07-13T02:50:06;22.67;;;20.80;;
8964;SDS011;4517;49.020;12.066;2023-07-13T02:52:32;23.13;;;20.43;;
8964;SDS011;4517;49.020;12.066;2023-07-13T02:54:57;21.53;;;19.43;;
8964;SDS011;4517;49.020;12.066;2023-07-13T02:57:23;21.50;;;19.70;;
8964;SDS011;4517;49.020;12.066;2023-07-13T02:59:49;21.57;;;19.77;;
8964;SDS011;4517;49.020;12.066;2023-07-13T03:02:15;22.90;;;20.60;;
8964;SDS011;4517;49.020;12.066;2023-07-13T03:04:41;21.53;;;19.57;;
8964;SDS011;4517;49.020;12.066;2023-07-13T03:07:06;21.37;;;19.60;;
8964;SDS011;4517;49.020;12.066;2023-07-13T03:09:33;22.13;;;20.10;;
8964;SDS011;4517;49.020;12.066;2023-07-13T03:11:59;21.00;;;19.40;;
8964;SDS011;4517;49.020;12.066;2023-07-13T03:14:25;22.57;;;20.67;;
8964;SDS011;4517;49.020;12.066;2023-07-13T03:16:51;22.20;;;20.20;;
8964;SDS011;4517;49.020;12.066;2023-07-13T03:19:17;21.83;;;20.13;;
8964;SDS011;4517;49.020;12.066;2023-07-13T03:21:43;22.80;;;20.43;;
8964;SDS011;4517;49.020;12.066;2023-07-13T03:24:09;22.17;;;19.97;;
8964;SDS011;4517;49.020;12.066;2023-07-13T03:26:34;22.53;;;20.33;;
8964;SDS011;4517;49.020;12.066;2023-07-13T03:29:00;21.30;;;19.70;;
8964;SDS011;4517;49.020;12.066;2023-07-13T03:31:27;22.50;;;20.60;;
8964;SDS011;4517;49.020;12.066;2023-07-13T03:33:55;23.13;;;21.00;;
8964;SDS011;4517;49.020;12.066;2023-07-13T03:36:24;22.70;;;20.53;;
8964;SDS011;4517;49.020;12.066;2023-07-13T03:38:52;22.00;;;20.03;;
8964;SDS011;4517;49.020;12.066;2023-07-13T03:41:20;24.37;;;22.17;;
8964;SDS011;4517;49.020;12.066;2023-07-13T03:43:46;22.10;;;20.23;;
8964;SDS011;4517;49.020;12.066;2023-07-13T03:46:13;23.13;;;21.10;;
8964;SDS011;4517;49.020;12.066;2023-07-13T03:48:39;24.27;;;22.20;;
8964;SDS011;4517;49.020;12.066;2023-07-13T03:51:09;22.50;;;20.53;;
8964;SDS011;4517;49.020;12.066;2023-07-13T03:53:37;22.67;;;20.47;;
8964;SDS011;4517;49.020;12.066;2023-07-13T03:56:04;23.03;;;20.00;;
8964;SDS011;4517;49.020;12.066;2023-07-13T04:00:55;21.30;;;19.60;;
8964;SDS011;4517;49.020;12.066;2023-07-13T04:03:22;23.07;;;20.87;;
8964;SDS011;4517;49.020;12.066;2023-07-13T04:05:48;22.30;;;20.37;;
8964;SDS011;4517;49.020;12.066;2023-07-13T04:08:13;22.67;;;20.00;;
8964;SDS011;4517;49.020;12.066;2023-07-13T04:10:39;22.67;;;20.47;;
8964;SDS011;4517;49.020;12.066;2023-07-13T04:13:05;21.57;;;19.73;;
8964;SDS011;4517;49.020;12.066;2023-07-13T04:15:31;21.27;;;19.53;;
8964;SDS011;4517;49.020;12.066;2023-07-13T04:17:57;20.50;;;18.40;;
8964;SDS011;4517;49.020;12.066;2023-07-13T04:20:24;20.40;;;18.57;;
8964;SDS011;4517;49.020;12.066;2023-07-13T04:22:50;26.43;;;19.93;;
8964;SDS011;4517;49.020;12.066;2023-07-13T04:25:16;20.10;;;18.37;;
8964;SDS011;4517;49.020;12.066;2023-07-13T04:27:42;19.97;;;17.93;;
8964;SDS011;4517;49.020;12.066;2023-07-13T04:30:08;18.77;;;17.37;;
8964;SDS011;4517;49.020;12.066;2023-07-13T04:32:34;19.93;;;18.03;;
8964;SDS011;4517;49.020;12.066;2023-07-13T04:34:59;22.10;;;19.93;;
8964;SDS011;4517;49.020;12.066;2023-07-13T04:37:25;21.43;;;19.33;;
8964;SDS011;4517;49.020;12.066;2023-07-13T04:39:51;20.83;;;18.87;;
8964;SDS011;4517;49.020;12.066;2023-07-13T04:42:17;21.47;;;19.00;;
8964;SDS011;4517;49.020;12.066;2023-07-13T04:44:49;21.40;;;19.40;;
8964;SDS011;4517;49.020;12.066;2023-07-13T04:47:16;21.13;;;18.93;;
8964;SDS011;4517;49.020;12.066;2023-07-13T04:49:42;23.10;;;20.87;;
8964;SDS011;4517;49.020;12.066;2023-07-13T04:52:08;21.17;;;19.13;;
8964;SDS011;4517;49.020;12.066;2023-07-13T04:54:34;21.10;;;18.20;;
8964;SDS011;4517;49.020;12.066;2023-07-13T04:56:59;20.00;;;18.20;;
8964;SDS011;4517;49.020;12.066;2023-07-13T04:59:26;20.57;;;18.43;;
8964;SDS011;4517;49.020;12.066;2023-07-13T05:01:51;20.90;;;18.63;;
8964;SDS011;4517;49.020;12.066;2023-07-13T05:04:17;23.90;;;17.70;;
8964;SDS011;4517;49.020;12.066;2023-07-13T05:06:43;24.03;;;22.30;;
8964;SDS011;4517;49.020;12.066;2023-07-13T05:09:09;19.23;;;17.60;;
8964;SDS011;4517;49.020;12.066;2023-07-13T05:11:34;17.30;;;15.70;;
8964;SDS011;4517;49.020;12.066;2023-07-13T05:14:00;17.50;;;15.90;;
8964;SDS011;4517;49.020;12.066;2023-07-13T05:16:26;19.43;;;17.50;;
8964;SDS011;4517;49.020;12.066;2023-07-13T05:18:52;20.63;;;18.50;;
8964;SDS011;4517;49.020;12.066;2023-07-13T05:21:18;17.30;;;15.90;;
8964;SDS011;4517;49.020;12.066;2023-07-13T05:23:44;20.33;;;18.30;;
8964;SDS011;4517;49.020;12.066;2023-07-13T05:26:10;18.40;;;16.67;;
8964;SDS011;4517;49.020;12.066;2023-07-13T05:28:36;19.20;;;17.33;;
8964;SDS011;4517;49.020;12.066;2023-07-13T05:31:02;19.23;;;17.50;;
8964;SDS011;4517;49.020;12.066;2023-07-13T05:33:27;17.53;;;16.23;;
8964;SDS011;4517;49.020;12.066;2023-07-13T05:35:53;19.63;;;16.60;;
8964;SDS011;4517;49.020;12.066;2023-07-13T05:38:19;17.63;;;16.03;;
8964;SDS011;4517;49.020;12.066;2023-07-13T05:40:45;18.37;;;15.97;;
8964;SDS011;4517;49.020;12.066;2023-07-13T05:43:11;22.63;;;20.97;;
8964;SDS011;4517;49.020;12.066;2023-07-13T05:45:37;18.10;;;16.20;;
8964;SDS011;4517;49.020;12.066;2023-07-13T05:48:03;17.33;;;15.80;;
8964;SDS011;4517;49.020;12.066;2023-07-13T05:50:28;16.60;;;15.23;;
8964;SDS011;4517;49.020;12.066;2023-07-13T05:52:54;17.53;;;16.07;;
8964;SDS011;4517;49.020;12.066;2023-07-13T05:55:21;16.90;;;15.40;;
8964;SDS011;4517;49.020;12.066;2023-07-13T05:57:46;17.30;;;15.87;;
8964;SDS011;4517;49.020;12.066;2023-07-13T06:00:12;15.80;;;14.60;;
8964;SDS011;4517;49.020;12.066;2023-07-13T06:02:38;17.10;;;15.50;;
8964;SDS011;4517;49.020;12.066;2023-07-13T06:05:04;18.30;;;16.50;;
8964;SDS011;4517;49.020;12.066;2023-07-13T06:07:30;17.97;;;16.43;;
8964;SDS011;4517;49.020;12.066;2023-07-13T06:09:55;18.23;;;16.40;;
8964;SDS011;4517;49.020;12.066;2023-07-13T06:12:21;16.83;;;15.57;;
8964;SDS011;4517;49.020;12.066;2023-07-13T06:14:46;16.90;;;15.60;;
8964;SDS011;4517;49.020;12.066;2023-07-13T06:17:12;16.83;;;15.63;;
8964;SDS011;4517;49.020;12.066;2023-07-13T06:19:38;18.53;;;16.87;;
8964;SDS011;4517;49.020;12.066;2023-07-13T06:22:03;17.23;;;15.80;;
8964;SDS011;4517;49.020;12.066;2023-07-13T06:24:29;17.40;;;16.10;;
8964;SDS011;4517;49.020;12.066;2023-07-13T06:26:55;17.67;;;16.40;;
8964;SDS011;4517;49.020;12.066;2023-07-13T06:29:20;17.53;;;15.83;;
8964;SDS011;4517;49.020;12.066;2023-07-13T06:31:46;17.17;;;15.87;;
8964;SDS011;4517;49.020;12.066;2023-07-13T06:34:11;17.30;;;16.20;;
8964;SDS011;4517;49.020;12.066;2023-07-13T06:36:37;16.33;;;15.03;;
8964;SDS011;4517;49.020;12.066;2023-07-13T06:39:03;17.77;;;16.17;;
8964;SDS011;4517;49.020;12.066;2023-07-13T06:41:29;17.67;;;16.47;;
8964;SDS011;4517;49.020;12.066;2023-07-13T06:43:55;16.70;;;15.40;;
8964;SDS011;4517;49.020;12.066;2023-07-13T06:46:21;16.27;;;15.17;;
8964;SDS011;4517;49.020;12.066;2023-07-13T06:48:47;17.77;;;16.20;;
8964;SDS011;4517;49.020;12.066;2023-07-13T06:51:13;16.33;;;15.23;;
8964;SDS011;4517;49.020;12.066;2023-07-13T06:53:39;17.77;;;16.13;;
8964;SDS011;4517;49.020;12.066;2023-07-13T06:56:04;17.33;;;16.23;;
8964;SDS011;4517;49.020;12.066;2023-07-13T06:58:30;17.63;;;16.43;;
8964;SDS011;4517;49.020;12.066;2023-07-13T07:00:56;17.87;;;16.27;;
8964;SDS011;4517;49.020;12.066;2023-07-13T07:03:21;17.23;;;16.03;;
8964;SDS011;4517;49.020;12.066;2023-07-13T07:05:47;17.77;;;16.67;;
8964;SDS011;4517;49.020;12.066;2023-07-13T07:08:13;17.63;;;16.00;;
8964;SDS011;4517;49.020;12.066;2023-07-13T07:10:38;16.80;;;15.67;;
8964;SDS011;4517;49.020;12.066;2023-07-13T07:13:05;17.47;;;16.00;;
8964;SDS011;4517;49.020;12.066;2023-07-13T07:15:30;17.37;;;15.90;;
8964;SDS011;4517;49.020;12.066;2023-07-13T07:17:56;21.53;;;17.10;;
8964;SDS011;4517;49.020;12.066;2023-07-13T07:20:22;20.90;;;18.90;;
8964;SDS011;4517;49.020;12.066;2023-07-13T07:22:47;18.40;;;16.83;;
8964;SDS011;4517;49.020;12.066;2023-07-13T07:25:13;18.17;;;16.67;;
8964;SDS011;4517;49.020;12.066;2023-07-13T07:27:39;21.03;;;18.90;;
8964;SDS011;4517;49.020;12.066;2023-07-13T07:30:05;24.30;;;22.57;;
8964;SDS011;4517;49.020;12.066;2023-07-13T07:32:31;21.13;;;19.13;;
8964;SDS011;4517;49.020;12.066;2023-07-13T07:34:57;21.47;;;18.23;;
8964;SDS011;4517;49.020;12.066;2023-07-13T07:37:23;28.57;;;21.57;;
8964;SDS011;4517;49.020;12.066;2023-07-13T07:39:49;18.60;;;17.10;;
8964;SDS011;4517;49.020;12.066;2023-07-13T07:42:15;19.00;;;17.40;;
8964;SDS011;4517;49.020;12.066;2023-07-13T07:44:41;18.13;;;16.93;;
8964;SDS011;4517;49.020;12.066;2023-07-13T07:47:07;17.97;;;16.47;;
8964;SDS011;4517;49.020;12.066;2023-07-13T07:49:33;17.97;;;16.50;;
8964;SDS011;4517;49.020;12.066;2023-07-13T07:51:59;17.30;;;15.90;;
8964;SDS011;4517;49.020;12.066;2023-07-13T07:54:25;18.23;;;17.00;;
8964;SDS011;4517;49.020;12.066;2023-07-13T07:56:50;18.10;;;16.80;;
8964;SDS011;4517;49.020;12.066;2023-07-13T07:59:16;16.80;;;15.70;;
8964;SDS011;4517;49.020;12.066;2023-07-13T08:01:42;17.40;;;16.20;;
8964;SDS011;4517;49.020;12.066;2023-07-13T08:04:08;18.20;;;16.80;;
8964;SDS011;4517;49.020;12.066;2023-07-13T08:06:34;19.40;;;17.97;;
8964;SDS011;4517;49.020;12.066;2023-07-13T08:09:00;19.63;;;18.33;;
8964;SDS011;4517;49.020;12.066;2023-07-13T08:11:27;17.87;;;16.77;;
8964;SDS011;4517;49.020;12.066;2023-07-13T08:13:53;18.67;;;16.93;;
8964;SDS011;4517;49.020;12.066;2023-07-13T08:16:18;17.80;;;16.10;;
8964;SDS011;4517;49.020;12.066;2023-07-13T08:18:44;17.97;;;16.57;;
8964;SDS011;4517;49.020;12.066;2023-07-13T08:21:09;17.10;;;15.83;;
8964;SDS011;4517;49.020;12.066;2023-07-13T08:23:35;17.40;;;16.10;;
8964;SDS011;4517;49.020;12.066;2023-07-13T08:26:01;17.83;;;16.20;;
8964;SDS011;4517;49.020;12.066;2023-07-13T08:28:28;18.27;;;17.07;;
8964;SDS011;4517;49.020;12.066;2023-07-13T08:30:54;17.80;;;16.60;;
8964;SDS011;4517;49.020;12.066;2023-07-13T08:33:20;17.03;;;15.73;;
8964;SDS011;4517;49.020;12.066;2023-07-13T08:35:48;17.80;;;16.50;;
8964;SDS011;4517;49.020;12.066;2023-07-13T08:38:15;20.67;;;18.97;;
8964;SDS011;4517;49.020;12.066;2023-07-13T08:40:42;19.00;;;17.60;;
8964;SDS011;4517;49.020;12.066;2023-07-13T08:43:09;17.37;;;16.27;;
8964;SDS011;4517;49.020;12.066;2023-07-13T08:45:47;18.63;;;17.30;;
8964;SDS011;4517;49.020;12.066;2023-07-13T08:48:27;16.67;;;15.47;;
8964;SDS011;4517;49.020;12.066;2023-07-13T08:51:00;19.30;;;17.40;;
8964;SDS011;4517;49.020;12.066;2023-07-13T08:53:49;18.23;;;16.93;;
8964;SDS011;4517;49.020;12.066;2023-07-13T08:56:23;18.83;;;17.53;;
8964;SDS011;4517;49.020;12.066;2023-07-13T08:58:58;18.90;;;17.40;;
8964;SDS011;4517;49.020;12.066;2023-07-13T09:01:37;17.50;;;16.17;;
8964;SDS011;4517;49.020;12.066;2023-07-13T09:10:46;18.60;;;17.30;;
8964;SDS011;4517;49.020;12.066;2023-07-13T09:16:20;19.40;;;17.63;;
8964;SDS011;4517;49.020;12.066;2023-07-13T09:18:48;18.07;;;16.70;;
8964;SDS011;4517;49.020;12.066;2023-07-13T09:21:36;17.57;;;16.20;;
8964;SDS011;4517;49.020;12.066;2023-07-13T09:26:52;16.80;;;15.40;;
8964;SDS011;4517;49.020;12.066;2023-07-13T09:29:23;16.47;;;15.30;;
8964;SDS011;4517;49.020;12.066;2023-07-13T09:31:54;16.60;;;15.40;;
8964;SDS011;4517;49.020;12.066;2023-07-13T09:34:23;16.70;;;15.60;;
8964;SDS011;4517;49.020;12.066;2023-07-13T09:36:49;16.70;;;15.50;;
8964;SDS011;4517;49.020;12.066;2023-07-13T09:39:19;17.27;;;15.87;;
8964;SDS011;4517;49.020;12.066;2023-07-13T09:44:30;17.20;;;16.00;;
8964;SDS011;4517;49.020;12.066;2023-07-13T09:47:01;17.10;;;15.70;;
8964;SDS011;4517;49.020;12.066;2023-07-13T09:49:36;17.70;;;16.50;;
8964;SDS011;4517;49.020;12.066;2023-07-13T09:52:04;16.23;;;15.10;;
8964;SDS011;4517;49.020;12.066;2023-07-13T09:54:35;16.47;;;14.80;;
8964;SDS011;4517;49.020;12.066;2023-07-13T09:57:01;15.50;;;14.43;;
8964;SDS011;4517;49.020;12.066;2023-07-13T09:59:30;17.10;;;16.00;;
8964;SDS011;4517;49.020;12.066;2023-07-13T10:01:57;16.93;;;15.73;;
8964;SDS011;4517;49.020;12.066;2023-07-13T10:04:28;16.07;;;14.97;;
8964;SDS011;4517;49.020;12.066;2023-07-13T10:07:06;17.73;;;16.37;;
8964;SDS011;4517;49.020;12.066;2023-07-13T10:09:34;16.07;;;14.87;;
8964;SDS011;4517;49.020;12.066;2023-07-13T10:11:59;16.53;;;15.33;;
8964;SDS011;4517;49.020;12.066;2023-07-13T10:14:26;17.80;;;16.57;;
8964;SDS011;4517;49.020;12.066;2023-07-13T10:16:58;16.50;;;15.40;;
8964;SDS011;4517;49.020;12.066;2023-07-13T10:19:32;16.63;;;15.63;;
8964;SDS011;4517;49.020;12.066;2023-07-13T10:22:00;16.50;;;15.37;;
8964;SDS011;4517;49.020;12.066;2023-07-13T10:24:27;15.93;;;14.93;;
8964;SDS011;4517;49.020;12.066;2023-07-13T10:29:25;16.97;;;15.87;;
8964;SDS011;4517;49.020;12.066;2023-07-13T10:31:53;17.10;;;15.77;;
8964;SDS011;4517;49.020;12.066;2023-07-13T10:34:19;18.33;;;17.10;;
8964;SDS011;4517;49.020;12.066;2023-07-13T10:36:46;18.73;;;17.50;;
8964;SDS011;4517;49.020;12.066;2023-07-13T10:39:17;18.60;;;17.20;;
8964;SDS011;4517;49.020;12.066;2023-07-13T10:41:53;18.63;;;17.20;;
8964;SDS011;4517;49.020;12.066;2023-07-13T10:44:26;18.17;;;16.73;;
8964;SDS011;4517;49.020;12.066;2023-07-13T10:46:55;18.37;;;16.87;;
8964;SDS011;4517;49.020;12.066;2023-07-13T10:49:23;21.00;;;17.17;;
8964;SDS011;4517;49.020;12.066;2023-07-13T10:51:51;18.03;;;16.70;;
8964;SDS011;4517;49.020;12.066;2023-07-13T10:54:19;17.17;;;16.00;;
8964;SDS011;4517;49.020;12.066;2023-07-13T10:59:41;17.30;;;16.03;;
8964;SDS011;4517;49.020;12.066;2023-07-13T11:02:24;16.07;;;15.00;;
8964;SDS011;4517;49.020;12.066;2023-07-13T11:04:52;17.07;;;15.73;;
8964;SDS011;4517;49.020;12.066;2023-07-13T11:07:24;16.87;;;15.70;;
8964;SDS011;4517;49.020;12.066;2023-07-13T11:09:54;16.80;;;15.70;;
8964;SDS011;4517;49.020;12.066;2023-07-13T11:22:43;17.10;;;15.90;;
8964;SDS011;4517;49.020;12.066;2023-07-13T11:33:21;15.90;;;14.80;;
8964;SDS011;4517;49.020;12.066;2023-07-13T11:35:57;15.80;;;14.73;;
8964;SDS011;4517;49.020;12.066;2023-07-13T11:41:16;17.20;;;16.00;;
8964;SDS011;4517;49.020;12.066;2023-07-13T11:43:49;18.20;;;16.70;;
8964;SDS011;4517;49.020;12.066;2023-07-13T11:46:20;17.07;;;15.93;;
8964;SDS011;4517;49.020;12.066;2023-07-13T11:48:48;17.90;;;16.60;;
8964;SDS011;4517;49.020;12.066;2023-07-13T11:51:29;17.43;;;15.90;;
8964;SDS011;4517;49.020;12.066;2023-07-13T11:54:00;19.47;;;17.90;;
8964;SDS011;4517;49.020;12.066;2023-07-13T11:56:29;17.07;;;15.80;;
8964;SDS011;4517;49.020;12.066;2023-07-13T11:58:57;18.53;;;17.37;;
8964;SDS011;4517;49.020;12.066;2023-07-13T12:01:30;16.53;;;15.27;;
8964;SDS011;4517;49.020;12.066;2023-07-13T12:03:58;17.87;;;16.73;;
8964;SDS011;4517;49.020;12.066;2023-07-13T12:06:29;17.73;;;16.53;;
8964;SDS011;4517;49.020;12.066;2023-07-13T12:08:57;17.50;;;16.20;;
8964;SDS011;4517;49.020;12.066;2023-07-13T12:11:25;18.00;;;16.77;;
8964;SDS011;4517;49.020;12.066;2023-07-13T12:13:51;17.80;;;16.60;;
8964;SDS011;4517;49.020;12.066;2023-07-13T12:16:28;18.40;;;17.10;;
8964;SDS011;4517;49.020;12.066;2023-07-13T12:18:57;18.30;;;17.20;;
8964;SDS011;4517;49.020;12.066;2023-07-13T12:21:29;18.50;;;17.30;;
8964;SDS011;4517;49.020;12.066;2023-07-13T12:24:03;19.43;;;17.90;;
8964;SDS011;4517;49.020;12.066;2023-07-13T12:26:30;18.50;;;17.10;;
8964;SDS011;4517;49.020;12.066;2023-07-13T12:28:58;18.53;;;17.20;;
8964;SDS011;4517;49.020;12.066;2023-07-13T12:33:58;17.60;;;16.50;;
8964;SDS011;4517;49.020;12.066;2023-07-13T12:36:32;18.73;;;17.43;;
8964;SDS011;4517;49.020;12.066;2023-07-13T12:39:00;17.20;;;15.77;;
8964;SDS011;4517;49.020;12.066;2023-07-13T12:41:32;18.80;;;17.40;;
8964;SDS011;4517;49.020;12.066;2023-07-13T12:43:58;18.87;;;17.43;;
8964;SDS011;4517;49.020;12.066;2023-07-13T12:46:24;17.73;;;16.43;;
8964;SDS011;4517;49.020;12.066;2023-07-13T12:48:54;17.90;;;16.60;;
8964;SDS011;4517;49.020;12.066;2023-07-13T12:51:22;18.53;;;17.27;;
8964;SDS011;4517;49.020;12.066;2023-07-13T12:53:56;17.43;;;16.33;;
8964;SDS011;4517;49.020;12.066;2023-07-13T12:56:32;18.60;;;17.13;;
8964;SDS011;4517;49.020;12.066;2023-07-13T12:59:01;16.90;;;15.90;;
8964;SDS011;4517;49.020;12.066;2023-07-13T13:01:29;18.00;;;16.77;;
8964;SDS011;4517;49.020;12.066;2023-07-13T13:04:00;18.43;;;17.13;;
8964;SDS011;4517;49.020;12.066;2023-07-13T13:06:29;18.10;;;16.70;;
8964;SDS011;4517;49.020;12.066;2023-07-13T13:08:56;18.80;;;17.60;;
8964;SDS011;4517;49.020;12.066;2023-07-13T13:11:23;18.40;;;17.00;;
8964;SDS011;4517;49.020;12.066;2023-07-13T13:13:51;16.90;;;15.80;;
8964;SDS011;4517;49.020;12.066;2023-07-13T13:16:21;18.50;;;16.90;;
8964;SDS011;4517;49.020;12.066;2023-07-13T13:18:54;18.40;;;17.10;;
8964;SDS011;4517;49.020;12.066;2023-07-13T13:21:24;18.67;;;16.87;;
8964;SDS011;4517;49.020;12.066;2023-07-13T13:23:51;16.77;;;15.53;;
8964;SDS011;4517;49.020;12.066;2023-07-13T13:26:18;16.60;;;15.60;;
8964;SDS011;4517;49.020;12.066;2023-07-13T13:28:44;17.73;;;16.50;;
8964;SDS011;4517;49.020;12.066;2023-07-13T13:31:12;16.23;;;15.23;;
8964;SDS011;4517;49.020;12.066;2023-07-13T13:33:39;16.57;;;15.43;;
8964;SDS011;4517;49.020;12.066;2023-07-13T13:36:20;17.17;;;16.07;;
8964;SDS011;4517;49.020;12.066;2023-07-13T13:38:48;16.47;;;15.47;;
8964;SDS011;4517;49.020;12.066;2023-07-13T13:41:16;16.00;;;15.00;;
8964;SDS011;4517;49.020;12.066;2023-07-13T13:43:42;18.10;;;16.83;;
8964;SDS011;4517;49.020;12.066;2023-07-13T13:46:12;16.63;;;15.53;;
8964;SDS011;4517;49.020;12.066;2023-07-13T13:48:43;17.93;;;16.73;;
8964;SDS011;4517;49.020;12.066;2023-07-13T13:51:15;18.23;;;16.90;;
8964;SDS011;4517;49.020;12.066;2023-07-13T13:53:45;18.60;;;17.30;;
8964;SDS011;4517;49.020;12.066;2023-07-13T13:56:12;17.47;;;16.17;;
8964;SDS011;4517;49.020;12.066;2023-07-13T13:58:38;15.80;;;14.63;;
8964;SDS011;4517;49.020;12.066;2023-07-13T14:01:03;16.67;;;15.57;;
8964;SDS011;4517;49.020;12.066;2023-07-13T14:03:33;16.03;;;14.93;;
8964;SDS011;4517;49.020;12.066;2023-07-13T14:05:58;18.50;;;17.30;;
8964;SDS011;4517;49.020;12.066;2023-07-13T14:08:24;17.73;;;16.53;;
8964;SDS011;4517;49.020;12.066;2023-07-13T14:10:50;17.93;;;16.73;;
8964;SDS011;4517;49.020;12.066;2023-07-13T14:13:28;18.47;;;17.20;;
8964;SDS011;4517;49.020;12.066;2023-07-13T14:16:01;17.40;;;16.00;;
8964;SDS011;4517;49.020;12.066;2023-07-13T14:18:27;17.60;;;16.30;;
8964;SDS011;4517;49.020;12.066;2023-07-13T14:20:52;17.63;;;16.53;;
8964;SDS011;4517;49.020;12.066;2023-07-13T14:23:18;18.53;;;16.83;;
8964;SDS011;4517;49.020;12.066;2023-07-13T14:25:47;18.77;;;17.50;;
8964;SDS011;4517;49.020;12.066;2023-07-13T14:30:44;15.63;;;14.43;;
8964;SDS011;4517;49.020;12.066;2023-07-13T14:33:11;15.13;;;14.03;;
8964;SDS011;4517;49.020;12.066;2023-07-13T14:35:36;16.83;;;15.37;;
8964;SDS011;4517;49.020;12.066;2023-07-13T14:38:02;16.73;;;15.43;;
8964;SDS011;4517;49.020;12.066;2023-07-13T14:40:29;16.93;;;15.93;;
8964;SDS011;4517;49.020;12.066;2023-07-13T14:42:56;17.70;;;16.40;;
8964;SDS011;4517;49.020;12.066;2023-07-13T14:45:23;18.10;;;16.80;;
8964;SDS011;4517;49.020;12.066;2023-07-13T14:47:49;18.00;;;16.67;;
8964;SDS011;4517;49.020;12.066;2023-07-13T14:50:16;17.30;;;16.20;;
8964;SDS011;4517;49.020;12.066;2023-07-13T14:52:47;18.20;;;16.60;;
8964;SDS011;4517;49.020;12.066;2023-07-13T14:55:14;16.77;;;15.67;;
8964;SDS011;4517;49.020;12.066;2023-07-13T14:57:42;17.43;;;16.00;;
8964;SDS011;4517;49.020;12.066;2023-07-13T15:02:45;17.00;;;15.90;;
8964;SDS011;4517;49.020;12.066;2023-07-13T15:05:21;17.10;;;16.00;;
8964;SDS011;4517;49.020;12.066;2023-07-13T15:07:49;15.83;;;14.73;;
8964;SDS011;4517;49.020;12.066;2023-07-13T15:10:17;17.57;;;16.20;;
8964;SDS011;4517;49.020;12.066;2023-07-13T15:12:51;15.87;;;14.77;;
8964;SDS011;4517;49.020;12.066;2023-07-13T15:15:17;15.60;;;14.33;;
8964;SDS011;4517;49.020;12.066;2023-07-13T15:17:46;17.60;;;16.50;;
8964;SDS011;4517;49.020;12.066;2023-07-13T15:20:21;17.17;;;15.77;;
8964;SDS011;4517;49.020;12.066;2023-07-13T15:22:49;17.63;;;16.50;;
8964;SDS011;4517;49.020;12.066;2023-07-13T15:25:18;18.43;;;16.77;;
8964;SDS011;4517;49.020;12.066;2023-07-13T15:27:47;17.40;;;16.30;;
8964;SDS011;4517;49.020;12.066;2023-07-13T15:30:13;17.40;;;16.20;;
8964;SDS011;4517;49.020;12.066;2023-07-13T15:32:40;15.70;;;14.73;;